Hauptseite
METAR-TAF:

METAR-TAF

Flughäfen :

Flughafen Bagdad

Bagdad, Irak

Breite: 33-15-45N, Länge: 44-14-04E, Höhe: 35 m

Beobachtung

Neuester Wetterbericht von vor 32 Minuten, um 05:00 UTC
Wind 5 kt aus West/Nordwest, variierte zwischen West und Nordwest
Temperatur 17°C
Luftfeuchtigkeit 68%
Luftdruck 1012 hPa
Sichtweite 10 km oder mehr
Leicht bewölkt in der Höhe von 3000 ft
Leicht bewölkt in der Höhe von 10000 ft

METAR: ORBI 190500Z 30005KT 260V320 9999 FEW030 FEW100 17/11 Q1012 NOSIG

Zeit: 08:32 (05:32 UTC)

Prognose

Neuester Wetterbericht von vor 7 Stunden und 32 Minuten, um 22:00 UTC
Gültige Prognose vom 19 um 00 UTC bis 19 um 24 UTC
Wind 5 kt aus Nord/Nordwest
Sichtweite: 7000 m
Leicht bewölkt in der Höhe von 4000 ft

TAF: ORBI 182200Z 1900/1924 34005KT 7000 FEW040

Wetterbeobachtungen und Prognosen von mehr als 4000 Flughäfen (METAR und TAF Bericht).

Die verfügbaren Stationen werden durch gelbe und rote Markierungen auf der Karte dargestellt.

Führen Sie die Maus auf sie, um den Namen der Station zu sehen.

Darauf klicken, um die Beobachtung von Wetterbeobachtungen und Prognosen zu sehen.

Um die Karte zu ändern : klicken Sie auf den grünen Tasten mit einem schwarzen Kreuz Zum Vergrößern, auf den grünen Button mit einem Gedankenstrich zu verkleinern, oder auf die grünen Pfeile für benachbarte Karten.


METAR-TAF: